Time;durP1;ratioP1;P1;durP2;ratioP2;P2;SDS_P1;SDS_P2;PMS_P1;PMS_P2;Temp;Humidity;BMP_temperature;BMP_pressure;BME280_temperature;BME280_humidity;BME280_pressure;Samples;Min_cycle;Max_cycle;Signal;HPM_P1;HPM_P2
2022/04/23 00:02:00;;;;;;;2.00;1.10;;;;;;;19.41;45.08;100665.59;5142952;27;20023;-49
2022/04/23 00:04:26;;;;;;;1.23;1.13;;;;;;;19.42;44.91;100664.59;5147334;27;20379;-52
2022/04/23 00:06:51;;;;;;;1.33;1.20;;;;;;;19.50;44.83;100680.72;5129501;27;20015;-50
2022/04/23 00:09:16;;;;;;;1.60;1.45;;;;;;;19.41;45.22;100665.59;5146951;27;20047;-52
2022/04/23 00:11:42;;;;;;;1.73;1.30;;;;;;;19.40;45.01;100662.06;5147973;27;20060;-49
2022/04/23 00:14:07;;;;;;;1.27;1.17;;;;;;;19.49;45.05;100679.84;5147834;27;20030;-52
2022/04/23 00:16:32;;;;;;;1.33;1.23;;;;;;;19.48;45.09;100672.78;5124172;28;20559;-54
2022/04/23 00:18:58;;;;;;;1.50;1.20;;;;;;;19.47;44.97;100668.41;5109414;28;20023;-51
2022/04/23 00:21:24;;;;;;;1.42;1.33;;;;;;;19.39;44.90;100656.84;5109207;28;20027;-52
2022/04/23 00:23:49;;;;;;;1.85;1.52;;;;;;;19.48;45.02;100675.47;5142420;27;20031;-52
2022/04/23 00:26:14;;;;;;;1.55;1.20;;;;;;;19.40;44.70;100669.31;5129507;27;20580;-52
2022/04/23 00:28:40;;;;;;;1.63;1.40;;;;;;;19.48;44.67;100680.03;5147410;27;20031;-51
2022/04/23 00:31:05;;;;;;;2.17;1.30;;;;;;;19.47;44.80;100676.50;5147870;27;20057;-53
2022/04/23 00:33:32;;;;;;;1.48;1.38;;;;;;;19.45;44.63;100677.69;5129225;27;20030;-54
2022/04/23 00:35:57;;;;;;;1.75;1.38;;;;;;;19.37;44.89;100664.25;5147888;27;20034;-50
2022/04/23 00:38:23;;;;;;;1.50;1.30;;;;;;;19.39;44.58;100662.25;5128806;27;20027;-55
2022/04/23 00:40:48;;;;;;;1.90;1.23;;;;;;;19.38;44.59;100660.56;5128460;27;20074;-53
2022/04/23 00:43:25;;;;;;;1.55;1.40;;;;;;;19.47;44.60;100675.69;5147208;27;20015;-53
2022/04/23 00:45:51;;;;;;;1.55;1.30;;;;;;;19.45;44.52;100678.56;5139312;27;20052;-52
2022/04/23 00:48:16;;;;;;;1.50;1.40;;;;;;;19.45;44.95;100677.69;5146216;27;20019;-50
2022/04/23 00:50:41;;;;;;;1.73;1.35;;;;;;;19.45;44.71;100675.88;5146416;27;20027;-51
2022/04/23 00:53:07;;;;;;;1.70;1.33;;;;;;;19.46;44.66;100676.69;5128094;27;20063;-54
2022/04/23 00:55:33;;;;;;;1.65;1.50;;;;;;;19.45;44.61;100675.00;5146351;27;20031;-48
2022/04/23 00:57:59;;;;;;;1.52;1.42;;;;;;;19.39;44.41;100660.38;5145456;27;20086;-54
2022/04/23 01:00:25;;;;;;;1.90;1.58;;;;;;;19.45;44.43;100670.47;5146152;27;20019;-52
2022/04/23 01:02:54;;;;;;;1.60;1.50;;;;;;;19.33;44.44;100652.19;5145649;27;20041;-52
2022/04/23 01:05:23;;;;;;;1.63;1.50;;;;;;;19.44;44.27;100668.78;5147869;27;20030;-52
2022/04/23 01:07:48;;;;;;;;;;;;;;;19.39;44.82;100668.47;5147660;27;20053;-50
2022/04/23 01:10:13;;;;;;;2.08;1.60;;;;;;;19.40;44.63;100670.13;5136812;27;20352;-53
2022/04/23 01:12:39;;;;;;;1.95;1.50;;;;;;;19.40;44.62;100659.34;5146319;27;20026;-49
2022/04/23 01:15:09;;;;;;;1.80;1.55;;;;;;;19.42;44.35;100662.72;5146951;27;20031;-54
2022/04/23 01:17:35;;;;;;;2.38;2.00;;;;;;;19.42;44.45;100667.28;5146624;27;20030;-52
2022/04/23 01:20:04;;;;;;;1.63;1.50;;;;;;;19.34;44.58;100651.16;5128567;27;20055;-48
2022/04/23 01:22:30;;;;;;;2.03;1.50;;;;;;;19.41;44.56;100661.06;5146833;27;20030;-53
2022/04/23 01:24:55;;;;;;;1.67;1.58;;;;;;;19.41;44.39;100665.59;5128250;27;20034;-50
2022/04/23 01:27:25;;;;;;;1.60;1.48;;;;;;;19.33;44.28;100644.09;5146140;27;20035;-48
2022/04/23 01:29:51;;;;;;;2.25;1.55;;;;;;;19.41;44.23;100657.50;5111757;27;20019;-50
2022/04/23 01:32:16;;;;;;;2.63;2.00;;;;;;;19.40;44.30;100661.22;5127941;27;20019;-52
2022/04/23 01:34:41;;;;;;;2.17;1.88;;;;;;;19.40;44.21;100655.81;5146395;27;20039;-51
2022/04/23 01:37:07;;;;;;;4.45;1.85;;;;;;;19.39;44.18;100659.53;5146446;27;20042;-50
2022/04/23 01:39:33;;;;;;;2.65;1.80;;;;;;;19.38;44.18;100658.72;5128226;27;20045;-52
2022/04/23 01:41:58;;;;;;;1.75;1.40;;;;;;;19.39;44.41;100663.06;5145824;27;20023;-49
2022/04/23 01:44:23;;;;;;;2.20;1.75;;;;;;;19.30;44.23;100645.28;5127698;27;20098;-49
2022/04/23 01:46:48;;;;;;;2.17;1.98;;;;;;;19.37;44.13;100659.72;5133079;27;20030;-51
2022/04/23 01:49:14;;;;;;;2.13;1.92;;;;;;;19.29;44.07;100654.38;5146741;27;20464;-50
2022/04/23 01:51:39;;;;;;;2.03;1.83;;;;;;;19.27;44.12;100656.41;5110913;27;20035;-51
2022/04/23 01:54:04;;;;;;;2.20;2.00;;;;;;;19.28;44.21;100650.00;5146401;27;20026;-52
2022/04/23 01:56:29;;;;;;;2.45;2.00;;;;;;;19.29;44.34;100653.56;5146190;27;20126;-52
2022/04/23 01:58:55;;;;;;;2.15;1.77;;;;;;;19.37;43.87;100664.25;5127221;27;20070;-55
2022/04/23 02:01:20;;;;;;;2.60;2.30;;;;;;;19.36;44.16;100654.50;5127770;27;20030;-54
2022/04/23 02:03:45;;;;;;;2.28;2.03;;;;;;;19.26;44.28;100643.94;5127071;27;20047;-53
2022/04/23 02:06:12;;;;;;;2.70;1.83;;;;;;;19.36;44.19;100654.50;5127290;27;20015;-53
2022/04/23 02:08:37;;;;;;;2.10;1.90;;;;;;;19.35;44.27;100648.28;5145673;27;20631;-54
2022/04/23 02:11:03;;;;;;;1.58;1.48;;;;;;;19.35;43.89;100656.34;5145754;27;20031;-53
2022/04/23 02:13:28;;;;;;;2.28;2.03;;;;;;;19.34;44.14;100653.84;5145453;27;20023;-55
2022/04/23 02:15:53;;;;;;;1.98;1.80;;;;;;;19.35;44.26;100655.53;5127451;27;20023;-55
2022/04/23 02:18:21;;;;;;;2.08;1.88;;;;;;;19.34;44.27;100651.16;5145970;27;20112;-54
2022/04/23 02:20:46;;;;;;;2.40;2.10;;;;;;;19.31;44.09;100638.03;5127756;27;20043;-51
2022/04/23 02:23:11;;;;;;;2.30;1.92;;;;;;;19.34;44.31;100653.84;5145628;27;20030;-55
2022/04/23 02:25:37;;;;;;;2.67;2.13;;;;;;;19.33;43.99;100653.00;5145764;27;20048;-53
2022/04/23 02:28:03;;;;;;;2.65;2.17;;;;;;;19.24;43.96;100640.56;5126416;27;20046;-53
2022/04/23 02:30:29;;;;;;;2.20;2.00;;;;;;;19.33;43.73;100655.72;5145134;27;20031;-53
2022/04/23 02:32:54;;;;;;;2.38;2.05;;;;;;;19.31;44.10;100654.19;5126678;27;20042;-52
2022/04/23 02:35:20;;;;;;;3.33;2.20;;;;;;;19.32;44.13;100663.97;5127264;27;20472;-51
2022/04/23 02:37:47;;;;;;;2.10;1.88;;;;;;;19.32;43.92;100653.19;5144918;27;20030;-55
2022/04/23 02:40:13;;;;;;;2.67;2.40;;;;;;;19.31;44.23;100657.72;5109732;27;20124;-51
2022/04/23 02:42:39;;;;;;;2.88;2.25;;;;;;;19.23;43.87;100644.28;5126213;27;20055;-51
2022/04/23 02:45:05;;;;;;;2.15;1.95;;;;;;;19.31;43.80;100659.59;5145495;27;20556;-51
2022/04/23 02:47:42;;;;;;;2.78;2.13;;;;;;;19.32;44.12;100658.56;5143639;27;20027;-51
2022/04/23 02:50:09;;;;;;;2.25;2.00;;;;;;;19.26;44.08;100645.81;5145439;27;20027;-53
2022/04/23 02:52:35;;;;;;;2.38;2.17;;;;;;;19.29;43.78;100656.25;5145180;27;20027;-54
2022/04/23 02:55:00;;;;;;;2.45;1.90;;;;;;;19.28;43.65;100651.84;5145226;27;20041;-54
2022/04/23 02:57:25;;;;;;;2.72;2.38;;;;;;;19.28;43.81;100654.53;5144254;27;20053;-52
2022/04/23 02:59:50;;;;;;;2.20;2.00;;;;;;;19.28;43.85;100651.84;5126979;27;20036;-52
2022/04/23 03:02:15;;;;;;;2.88;2.28;;;;;;;19.18;43.92;100636.75;5144794;27;20031;-52
2022/04/23 03:04:42;;;;;;;2.70;2.20;;;;;;;19.28;43.94;100659.94;5126850;27;20117;-54
2022/04/23 03:07:07;;;;;;;2.55;2.22;;;;;;;19.27;43.68;100658.25;5144671;27;20023;-51
2022/04/23 03:09:32;;;;;;;3.22;2.47;;;;;;;19.25;43.97;100646.84;5126625;27;20027;-51
2022/04/23 03:11:58;;;;;;;2.28;2.08;;;;;;;19.26;43.69;100660.13;5144185;27;20035;-53
2022/04/23 03:14:23;;;;;;;2.03;1.75;;;;;;;19.27;43.81;100663.66;5126583;27;20031;-51
2022/04/23 03:16:48;;;;;;;2.10;1.90;;;;;;;19.26;43.95;100661.97;5144241;27;20023;-52
2022/04/23 03:19:13;;;;;;;2.33;2.10;;;;;;;19.25;43.72;100657.63;5144955;27;20055;-54
2022/04/23 03:21:38;;;;;;;2.58;2.28;;;;;;;19.25;43.80;100654.91;5144574;27;20043;-52
2022/04/23 03:24:04;;;;;;;2.95;2.20;;;;;;;19.15;43.79;100650.56;5126192;27;20094;-54
2022/04/23 03:26:29;;;;;;;2.78;2.38;;;;;;;19.24;43.78;100667.53;5126147;27;20035;-52
2022/04/23 03:28:54;;;;;;;2.40;2.10;;;;;;;19.22;43.69;100661.50;5143960;27;20087;-55
2022/04/23 03:31:20;;;;;;;1.70;1.60;;;;;;;19.23;44.00;100664.00;5144634;27;20055;-53
2022/04/23 03:33:45;;;;;;;2.30;2.10;;;;;;;19.24;43.67;100664.84;5125664;27;20031;-49
2022/04/23 03:36:10;;;;;;;2.20;1.92;;;;;;;19.14;43.67;100648.88;5144711;27;20019;-53
2022/04/23 03:38:36;;;;;;;3.25;2.25;;;;;;;19.23;43.72;100663.16;5144261;28;20228;-51
2022/04/23 03:41:02;;;;;;;3.35;2.38;;;;;;;19.20;43.72;100655.44;5144249;28;20103;-55
2022/04/23 03:43:28;;;;;;;2.63;2.33;;;;;;;19.23;43.62;100660.47;5108799;28;20047;-54
2022/04/23 03:45:53;;;;;;;2.67;2.25;;;;;;;19.23;43.75;100657.78;5126119;28;20027;-52
2022/04/23 03:48:18;;;;;;;2.67;2.22;;;;;;;19.22;43.69;100661.50;5125865;28;20027;-54
2022/04/23 03:50:44;;;;;;;2.30;2.08;;;;;;;19.21;43.84;100660.66;5144682;28;20105;-50
2022/04/23 03:53:09;;;;;;;2.28;1.90;;;;;;;19.21;43.59;100657.97;5125852;28;20031;-52
2022/04/23 03:55:35;;;;;;;2.63;2.28;;;;;;;19.13;43.48;100652.59;5144411;28;20027;-51
2022/04/23 03:58:01;;;;;;;2.25;1.92;;;;;;;19.21;43.59;100655.25;5108399;28;20669;-52
2022/04/23 04:00:28;;;;;;;2.42;2.13;;;;;;;19.21;43.77;100657.97;5125915;28;20132;-51
2022/04/23 04:02:54;;;;;;;4.47;2.13;;;;;;;19.21;43.52;100657.13;5125568;28;20023;-53
2022/04/23 04:05:20;;;;;;;2.55;2.35;;;;;;;19.20;43.75;100653.59;5126247;28;20069;-53
2022/04/23 04:07:47;;;;;;;3.50;2.55;;;;;;;19.21;43.46;100659.81;5143939;28;20030;-53
2022/04/23 04:10:15;;;;;;;1.98;1.70;;;;;;;19.21;43.78;100659.81;5144268;28;20024;-53
2022/04/23 04:12:41;;;;;;;2.03;1.83;;;;;;;19.19;43.53;100657.28;5143387;28;20027;-51
2022/04/23 04:15:07;;;;;;;2.33;2.13;;;;;;;19.19;43.65;100654.59;5125740;28;20022;-47
2022/04/23 04:17:34;;;;;;;2.90;2.47;;;;;;;19.18;43.42;100649.38;5125398;28;20024;-51
2022/04/23 04:19:59;;;;;;;2.80;2.10;;;;;;;19.19;43.45;100653.75;5108875;28;20044;-53
2022/04/23 04:22:25;;;;;;;2.08;1.88;;;;;;;19.17;43.78;100648.53;5143521;28;20042;-53
2022/04/23 04:24:50;;;;;;;2.30;2.10;;;;;;;19.17;43.49;100650.41;5144256;28;20574;-50
2022/04/23 04:27:15;;;;;;;2.15;1.90;;;;;;;19.17;43.50;100650.41;5143266;27;20117;-50
2022/04/23 04:29:40;;;;;;;2.25;2.05;;;;;;;19.08;43.44;100630.75;5148056;27;20027;-47
2022/04/23 04:32:07;;;;;;;2.42;1.98;;;;;;;19.15;43.55;100644.34;5128996;27;20030;-48
2022/04/23 04:34:33;;;;;;;2.45;2.20;;;;;;;19.15;43.69;100647.88;5148207;27;20068;-49
2022/04/23 04:37:05;;;;;;;2.25;1.77;;;;;;;19.16;43.37;100649.56;5129129;27;20035;-51
2022/04/23 04:39:31;;;;;;;2.35;2.03;;;;;;;19.15;43.47;100650.56;5147522;27;20027;-51
2022/04/23 04:41:56;;;;;;;2.03;1.83;;;;;;;19.17;43.48;100650.41;5120618;28;20100;-51
2022/04/23 04:44:22;;;;;;;2.00;1.80;;;;;;;19.15;43.28;100645.16;5109942;27;20024;-51
2022/04/23 04:46:47;;;;;;;2.08;1.88;;;;;;;19.15;43.33;100641.66;5146432;27;20212;-50
2022/04/23 04:49:12;;;;;;;2.00;1.83;;;;;;;19.14;43.16;100645.34;5146310;27;20410;-49
2022/04/23 04:51:37;;;;;;;2.47;1.80;;;;;;;19.12;43.50;100642.84;5146358;27;20031;-52
2022/04/23 04:54:04;;;;;;;2.83;2.17;;;;;;;19.14;43.18;100648.06;5146976;27;20034;-52
2022/04/23 04:56:29;;;;;;;1.95;1.75;;;;;;;19.13;43.29;100649.06;5128880;27;20023;-50
2022/04/23 04:58:55;;;;;;;1.60;1.48;;;;;;;19.12;43.63;100652.81;5128264;27;20030;-53
2022/04/23 05:01:20;;;;;;;2.55;2.33;;;;;;;19.13;43.75;100654.47;5147273;27;20019;-47
2022/04/23 05:03:46;;;;;;;1.83;1.67;;;;;;;19.02;43.37;100636.00;5146541;27;20080;-53
2022/04/23 05:06:12;;;;;;;1.73;1.60;;;;;;;19.02;43.45;100644.06;5133633;27;20028;-51
2022/04/23 05:08:38;;;;;;;2.10;1.90;;;;;;;19.11;43.38;100656.47;5090970;28;20026;-51
2022/04/23 05:11:03;;;;;;;2.25;1.92;;;;;;;19.11;43.82;100659.19;5108186;28;20019;-49
2022/04/23 05:13:29;;;;;;;2.10;1.90;;;;;;;19.10;43.70;100662.91;5117562;27;20019;-52
2022/04/23 05:15:55;;;;;;;2.03;1.83;;;;;;;19.09;43.83;100655.84;5146843;27;20037;-50
2022/04/23 05:18:20;;;;;;;2.35;1.77;;;;;;;19.08;43.78;100657.69;5146861;27;20031;-50
2022/04/23 05:20:46;;;;;;;1.80;1.70;;;;;;;19.07;43.72;100661.38;5128464;27;20035;-50
2022/04/23 05:23:11;;;;;;;2.15;1.77;;;;;;;19.03;43.95;100656.53;5128174;27;20031;-49
2022/04/23 05:25:36;;;;;;;2.22;2.03;;;;;;;19.06;43.62;100672.34;5129132;27;20030;-52
2022/04/23 05:28:01;;;;;;;2.53;2.00;;;;;;;18.95;43.64;100641.25;5107085;28;20031;-49
2022/04/23 05:30:27;;;;;;;2.28;1.98;;;;;;;18.97;43.77;100650.00;5135750;27;20015;-53
2022/04/23 05:32:52;;;;;;;2.10;1.90;;;;;;;19.04;43.72;100660.91;5119080;28;20035;-49
2022/04/23 05:35:17;;;;;;;2.30;2.10;;;;;;;18.95;43.90;100650.19;5125861;27;20027;-51
2022/04/23 05:37:42;;;;;;;3.17;2.08;;;;;;;18.93;43.69;100644.09;5137979;27;20082;-49
2022/04/23 05:40:08;;;;;;;2.13;1.75;;;;;;;19.04;44.04;100658.22;5146044;27;20062;-49
2022/04/23 05:42:34;;;;;;;1.60;1.40;;;;;;;19.03;43.78;100668.16;5125145;27;20028;-47
2022/04/23 05:44:59;;;;;;;2.15;1.95;;;;;;;19.03;44.00;100661.91;5110357;27;20091;-51
2022/04/23 05:47:24;;;;;;;2.17;1.98;;;;;;;19.04;44.23;100666.31;5109844;27;20501;-53
2022/04/23 05:49:49;;;;;;;2.17;1.77;;;;;;;18.93;44.03;100643.28;5118481;27;20031;-52
2022/04/23 05:52:15;;;;;;;2.38;2.17;;;;;;;18.94;43.85;100640.38;5145590;27;20016;-55
2022/04/23 05:54:40;;;;;;;2.45;2.15;;;;;;;19.02;44.35;100661.06;5138611;27;20039;-52
2022/04/23 05:57:05;;;;;;;2.15;1.95;;;;;;;19.01;44.22;100655.88;5108706;27;20027;-53
2022/04/23 05:59:31;;;;;;;2.13;1.90;;;;;;;19.04;44.23;100663.63;5127200;27;20105;-51
2022/04/23 06:01:57;;;;;;;2.40;2.20;;;;;;;19.04;44.54;100669.00;5145332;27;20403;-53
2022/04/23 06:04:29;;;;;;;2.10;1.80;;;;;;;19.03;44.41;100676.25;5127231;27;20084;-52
2022/04/23 06:06:55;;;;;;;2.17;1.98;;;;;;;19.04;44.37;100667.16;5145669;27;20023;-51
2022/04/23 06:09:21;;;;;;;2.05;1.80;;;;;;;19.03;44.12;100670.84;5127514;27;20046;-51
2022/04/23 06:11:46;;;;;;;2.13;1.88;;;;;;;19.07;44.38;100665.94;5109159;27;20032;-53
2022/04/23 06:14:11;;;;;;;2.13;1.92;;;;;;;19.06;44.26;100664.25;5141634;27;20696;-50
2022/04/23 06:16:37;;;;;;;2.00;1.85;;;;;;;18.96;44.47;100643.75;5106743;28;20456;-50
2022/04/23 06:19:02;;;;;;;3.00;2.60;;;;;;;18.97;44.34;100639.22;5126288;27;20564;-48
2022/04/23 06:21:28;;;;;;;2.30;2.03;;;;;;;18.98;44.15;100644.41;5143362;27;20032;-50
2022/04/23 06:23:53;;;;;;;2.65;2.40;;;;;;;18.98;44.31;100640.88;5126221;27;20019;-53
2022/04/23 06:26:18;;;;;;;2.35;1.90;;;;;;;19.09;44.27;100664.75;5127124;27;20027;-51
2022/04/23 06:28:43;;;;;;;3.03;2.15;;;;;;;19.09;44.25;100669.31;5129001;27;20028;-50
2022/04/23 06:31:09;;;;;;;2.08;1.88;;;;;;;19.09;44.41;100656.66;5124718;28;20027;-52
2022/04/23 06:33:34;;;;;;;2.17;1.90;;;;;;;19.09;44.51;100667.44;5124499;28;20031;-50
2022/04/23 06:35:59;;;;;;;2.05;1.88;;;;;;;18.98;44.23;100641.72;5124877;28;20031;-49
2022/04/23 06:38:24;;;;;;;2.25;2.05;;;;;;;19.09;44.53;100659.38;5105944;28;20091;-51
2022/04/23 06:40:51;;;;;;;2.38;1.77;;;;;;;19.10;44.68;100665.59;5124609;28;20103;-52
2022/04/23 06:43:16;;;;;;;2.15;1.90;;;;;;;19.10;44.42;100661.03;5108080;27;20589;-54
2022/04/23 06:45:41;;;;;;;2.35;2.15;;;;;;;19.10;44.75;100666.44;5118647;27;20083;-53
2022/04/23 06:48:07;;;;;;;3.17;2.33;;;;;;;19.00;44.60;100652.34;5145023;27;20039;-49
2022/04/23 06:50:33;;;;;;;2.67;2.33;;;;;;;19.13;44.45;100660.69;5143538;27;20027;-51
2022/04/23 06:52:59;;;;;;;3.10;2.25;;;;;;;19.09;44.37;100656.66;5144532;27;20038;-50
2022/04/23 06:55:25;;;;;;;2.55;2.10;;;;;;;19.15;44.47;100661.34;5144900;27;20030;-52
2022/04/23 06:57:50;;;;;;;2.03;1.83;;;;;;;19.15;44.52;100663.19;5144177;27;20617;-48
2022/04/23 07:00:15;;;;;;;3.42;2.45;;;;;;;19.16;44.37;100664.91;5126496;27;20034;-52
2022/04/23 07:02:41;;;;;;;2.10;1.90;;;;;;;19.16;44.37;100663.03;5144786;27;20019;-54
2022/04/23 07:05:07;;;;;;;2.33;2.08;;;;;;;19.17;44.43;100664.72;5109585;27;20508;-52
2022/04/23 07:07:33;;;;;;;2.40;2.20;;;;;;;19.18;44.58;100652.06;5144501;27;20055;-51
2022/04/23 07:09:59;;;;;;;2.10;1.80;;;;;;;19.19;44.48;100665.38;5144599;27;20019;-53
2022/04/23 07:12:24;;;;;;;2.00;1.80;;;;;;;19.18;44.54;100652.06;5125427;27;20042;-51
2022/04/23 07:14:49;;;;;;;2.17;1.80;;;;;;;19.21;44.33;100649.03;5144813;27;20035;-49
2022/04/23 07:17:15;;;;;;;2.40;2.03;;;;;;;19.19;44.18;100653.75;5125821;27;20034;-51
2022/04/23 07:19:40;;;;;;;1.92;1.75;;;;;;;19.20;44.22;100661.69;5145141;27;20031;-51
2022/04/23 07:22:07;;;;;;;2.15;1.88;;;;;;;19.21;44.14;100657.97;5125848;27;20034;-51
2022/04/23 07:24:33;;;;;;;2.47;2.17;;;;;;;19.21;44.20;100654.44;5126136;28;20034;-53
2022/04/23 07:26:59;;;;;;;2.50;2.10;;;;;;;19.22;44.28;100664.19;5108479;27;20349;-50
2022/04/23 07:29:24;;;;;;;2.75;2.10;;;;;;;19.21;44.09;100652.56;5126072;27;20471;-53
2022/04/23 07:31:49;;;;;;;2.22;2.03;;;;;;;19.10;44.17;100634.09;5144255;27;20039;-52
2022/04/23 07:39:44;;;;;;;2.10;1.90;;;;;;;19.18;44.06;100661.00;5144174;28;20057;-51
2022/04/23 07:42:09;;;;;;;1.98;1.77;;;;;;;19.19;44.03;100651.88;5143542;28;20046;-53
2022/04/23 07:44:36;;;;;;;2.72;2.15;;;;;;;19.10;44.29;100627.88;5126221;28;20023;-50
2022/04/23 07:47:01;;;;;;;2.45;2.15;;;;;;;19.20;43.89;100647.38;5126138;28;20499;-53
2022/04/23 07:49:27;;;;;;;2.83;1.90;;;;;;;19.21;44.22;100651.72;5108654;28;20029;-52
2022/04/23 07:51:52;;;;;;;2.70;2.40;;;;;;;19.20;44.44;100642.81;5108544;28;20019;-53
2022/04/23 07:54:17;;;;;;;2.20;2.00;;;;;;;19.21;44.04;100649.88;5125923;28;20027;-52
2022/04/23 07:56:43;;;;;;;2.67;2.10;;;;;;;19.20;44.03;100645.50;5144135;28;20034;-52
2022/04/23 07:59:09;;;;;;;2.00;1.80;;;;;;;19.21;44.14;100654.44;5108239;28;20451;-51
2022/04/23 08:01:34;;;;;;;2.13;1.92;;;;;;;19.22;44.09;100650.72;5125489;27;20045;-52
2022/04/23 08:04:02;;;;;;;2.38;1.90;;;;;;;19.22;44.02;100645.31;5128213;27;20070;-52
2022/04/23 08:06:28;;;;;;;2.83;2.25;;;;;;;19.14;43.89;100629.19;5148595;27;20023;-51
2022/04/23 08:08:53;;;;;;;2.22;1.92;;;;;;;19.22;43.96;100645.31;5147584;27;20600;-51
2022/04/23 08:11:19;;;;;;;3.88;2.30;;;;;;;19.22;43.69;100632.69;5148234;27;20042;-48
2022/04/23 08:13:44;;;;;;;2.70;2.05;;;;;;;19.20;44.09;100629.34;5128783;27;20024;-50
2022/04/23 08:16:10;;;;;;;2.60;2.08;;;;;;;19.14;44.05;100618.41;5129825;27;20027;-52
2022/04/23 08:18:35;;;;;;;2.53;2.20;;;;;;;19.23;43.94;100638.91;5147960;27;20051;-52
2022/04/23 08:21:01;;;;;;;2.80;2.00;;;;;;;19.23;43.93;100625.44;5129876;27;20439;-51
2022/04/23 08:23:26;;;;;;;2.40;2.13;;;;;;;19.23;43.96;100626.25;5128923;27;20667;-52
2022/04/23 08:25:55;;;;;;;2.95;2.45;;;;;;;19.23;43.98;100631.66;5147965;27;20098;-55
2022/04/23 08:31:04;;;;;;;2.72;2.20;;;;;;;19.24;43.97;100627.09;5147981;27;20053;-53
2022/04/23 08:33:57;;;;;;;2.72;2.10;;;;;;;19.24;43.55;100632.50;5128819;27;20122;-53
2022/04/23 08:36:15;;;;;;;2.45;1.95;;;;;;;19.26;43.94;100635.03;5147743;27;20019;-52
2022/04/23 08:38:40;;;;;;;2.50;2.13;;;;;;;19.16;44.02;100621.78;5147187;27;20127;-55
2022/04/23 08:41:06;;;;;;;2.55;2.20;;;;;;;19.26;43.75;100633.16;5147352;27;20100;-52
2022/04/23 08:43:32;;;;;;;2.65;2.33;;;;;;;19.27;43.92;100634.84;5111351;27;20030;-52
2022/04/23 08:45:59;;;;;;;2.60;2.17;;;;;;;19.19;43.52;100616.84;5140242;27;20028;-52
2022/04/23 08:48:26;;;;;;;3.05;2.35;;;;;;;19.30;43.73;100637.19;5145565;27;20019;-49
2022/04/23 08:50:59;;;;;;;2.63;2.15;;;;;;;19.32;43.66;100634.31;5128899;27;20034;-51
2022/04/23 08:53:27;;;;;;;2.78;2.47;;;;;;;19.31;43.23;100628.06;5132201;27;20027;-52
2022/04/23 08:55:53;;;;;;;2.60;2.40;;;;;;;19.31;43.65;100627.25;5147687;27;20023;-54
2022/04/23 08:58:18;;;;;;;2.33;2.10;;;;;;;19.32;43.48;100632.44;5146714;27;20049;-51
2022/04/23 09:00:44;;;;;;;2.60;2.33;;;;;;;19.32;43.35;100620.81;5108255;28;20039;-53
2022/04/23 09:03:16;;;;;;;2.75;2.33;;;;;;;19.25;43.49;100607.25;5126112;28;20027;-51
2022/04/23 09:05:43;;;;;;;2.58;2.22;;;;;;;19.25;43.30;100614.50;5108631;28;20380;-53
2022/04/23 09:08:08;;;;;;;2.20;2.00;;;;;;;19.34;43.43;100619.66;5108048;28;20031;-52
2022/04/23 09:10:46;;;;;;;2.80;2.50;;;;;;;19.35;43.50;100612.38;5091523;28;20111;-54
2022/04/23 09:13:29;;;;;;;2.57;2.37;;;;;;;19.35;43.40;100626.69;5107198;28;20045;-52
2022/04/23 09:24:42;;;;;;;3.13;2.55;;;;;;;19.34;43.66;100608.03;5131368;27;20022;-52
2022/04/23 09:27:07;;;;;;;2.45;2.20;;;;;;;19.34;43.32;100606.16;5146077;27;20035;-52
2022/04/23 09:29:33;;;;;;;3.08;2.45;;;;;;;19.34;43.42;100608.84;5146748;27;20053;-51
2022/04/23 09:32:14;;;;;;;2.55;2.28;;;;;;;19.35;43.66;100596.22;5146786;27;20113;-53
2022/04/23 09:34:40;;;;;;;2.92;2.40;;;;;;;19.34;43.72;100600.78;5128329;27;20062;-49
2022/04/23 09:37:05;;;;;;;2.97;2.38;;;;;;;19.34;43.46;100595.38;5146508;27;20807;-52
2022/04/23 09:39:34;;;;;;;2.60;2.35;;;;;;;19.36;43.65;100595.19;5146102;27;20047;-51
2022/04/23 09:42:18;;;;;;;2.72;2.13;;;;;;;19.36;43.41;100593.31;5127389;27;20555;-52
2022/04/23 09:44:44;;;;;;;3.33;2.40;;;;;;;19.26;43.24;100573.88;5128530;27;20122;-54
2022/04/23 09:47:10;;;;;;;2.70;2.20;;;;;;;19.25;43.50;100571.38;5144976;27;20037;-53
2022/04/23 09:49:38;;;;;;;2.60;2.33;;;;;;;19.37;43.45;100592.34;5144695;27;20502;-56
2022/04/23 09:52:08;;;;;;;2.85;2.53;;;;;;;19.38;43.64;100585.91;5145871;27;20027;-56
2022/04/23 09:54:34;;;;;;;3.45;2.80;;;;;;;19.38;43.71;100585.91;5136341;27;20031;-53
2022/04/23 09:57:00;;;;;;;2.92;2.38;;;;;;;19.39;43.73;100584.06;5108069;27;20583;-54
2022/04/23 09:59:26;;;;;;;2.97;2.47;;;;;;;19.39;43.70;100587.59;5127262;27;20022;-53
2022/04/23 10:01:54;;;;;;;2.30;2.10;;;;;;;19.41;43.81;100590.09;5126962;27;20037;-52
2022/04/23 10:04:22;;;;;;;2.20;2.00;;;;;;;19.41;43.73;100598.19;5145509;27;20106;-49
2022/04/23 10:06:49;;;;;;;2.50;2.30;;;;;;;19.41;43.46;100593.66;5142312;27;20042;-53
2022/04/23 10:09:19;;;;;;;2.35;2.15;;;;;;;19.43;43.55;100588.91;5126786;27;20113;-51
2022/04/23 10:11:47;;;;;;;2.47;2.22;;;;;;;19.43;43.58;100591.59;5126590;27;20400;-53
2022/04/23 10:14:18;;;;;;;3.20;2.63;;;;;;;19.44;43.71;100590.56;5126121;27;20019;-53
2022/04/23 10:16:45;;;;;;;2.83;2.42;;;;;;;19.44;43.54;100590.56;5114016;27;20067;-50
2022/04/23 10:19:10;;;;;;;2.97;2.20;;;;;;;19.45;43.52;100591.41;5119697;28;20019;-51
2022/04/23 10:21:50;;;;;;;3.03;2.47;;;;;;;19.47;43.71;100587.53;5135669;27;20060;-53
2022/04/23 10:24:19;;;;;;;2.80;2.55;;;;;;;19.46;44.01;100591.25;5113515;27;20023;-54
2022/04/23 10:26:49;;;;;;;3.40;2.65;;;;;;;19.37;43.88;100568.06;5106566;27;20027;-51
2022/04/23 10:29:15;;;;;;;2.72;2.42;;;;;;;19.48;43.76;100583.81;5108915;27;20026;-54
2022/04/23 10:31:41;;;;;;;2.78;2.22;;;;;;;19.49;43.90;100582.78;5126271;27;20063;-54
2022/04/23 10:34:29;;;;;;;2.58;2.33;;;;;;;19.51;43.93;100579.94;5126483;27;20019;-52
2022/04/23 10:37:13;;;;;;;2.90;2.58;;;;;;;19.52;43.85;100575.38;5126890;27;20023;-49
2022/04/23 10:39:38;;;;;;;3.03;2.20;;;;;;;19.52;44.29;100581.59;5126777;27;20023;-54
2022/04/23 10:42:05;;;;;;;2.78;2.42;;;;;;;19.53;43.89;100566.25;5125936;27;20042;-52
2022/04/23 10:44:31;;;;;;;3.08;2.45;;;;;;;19.54;44.25;100579.56;5145417;27;20055;-52
2022/04/23 10:46:58;;;;;;;2.60;2.17;;;;;;;19.55;44.16;100575.00;5105467;27;20027;-49
2022/04/23 10:49:24;;;;;;;2.88;2.40;;;;;;;19.45;44.25;100559.06;5126576;27;20488;-52
2022/04/23 10:51:57;;;;;;;2.88;2.40;;;;;;;19.58;44.20;100578.19;5125571;27;20094;-53
2022/04/23 10:54:42;;;;;;;2.88;2.58;;;;;;;19.61;44.44;100585.09;5125824;27;20023;-52
2022/04/23 10:57:09;;;;;;;3.30;2.60;;;;;;;19.49;44.34;100558.50;5143252;27;20031;-48
2022/04/23 10:59:44;;;;;;;3.00;2.42;;;;;;;19.62;43.98;100574.13;5126788;27;20023;-54
2022/04/23 11:02:34;;;;;;;3.38;2.65;;;;;;;19.63;44.30;100575.81;5139109;27;20027;-52
2022/04/23 11:13:55;;;;;;;2.80;2.10;;;;;;;19.66;44.87;100547.63;5123189;27;20022;-47
2022/04/23 11:16:21;;;;;;;2.95;2.15;;;;;;;19.57;44.33;100546.81;5123922;27;20666;-52
2022/04/23 11:18:52;;;;;;;2.63;2.42;;;;;;;19.70;44.61;100571.34;5104983;28;20118;-50
2022/04/23 11:21:26;;;;;;;2.95;2.65;;;;;;;19.67;45.06;100560.94;5105675;28;20016;-51
2022/04/23 11:23:52;;;;;;;3.80;3.00;;;;;;;19.71;45.03;100564.13;5136372;27;20016;-47
2022/04/23 11:26:22;;;;;;;2.97;2.67;;;;;;;19.72;45.26;100560.41;5125371;27;20518;-54
2022/04/23 11:28:57;;;;;;;3.50;2.72;;;;;;;19.74;45.13;100561.03;5125129;27;20023;-48
2022/04/23 11:31:22;;;;;;;3.60;2.58;;;;;;;19.73;45.24;100552.13;5125108;27;20018;-51
2022/04/23 11:33:50;;;;;;;3.10;2.67;;;;;;;19.62;45.52;100544.44;5108336;28;20019;-51
2022/04/23 11:36:15;;;;;;;3.58;3.20;;;;;;;19.63;45.67;100546.16;5108151;27;20072;-47
2022/04/23 11:38:42;;;;;;;3.70;3.20;;;;;;;19.74;45.53;100552.94;5143343;27;20027;-48
2022/04/23 11:41:07;;;;;;;4.00;3.30;;;;;;;19.76;45.43;100552.78;5126222;28;20039;-49
2022/04/23 11:43:37;;;;;;;4.18;3.40;;;;;;;19.77;45.58;100533.72;5125407;28;20119;-50
2022/04/23 11:46:06;;;;;;;3.28;2.97;;;;;;;19.77;45.91;100546.38;5144265;28;20027;-51
2022/04/23 11:48:46;;;;;;;3.40;3.10;;;;;;;19.78;46.03;100543.47;5142506;28;20110;-50